Flight Track Log - Related Links

Times and Time Zones

All times are in EDT time to prevent confusion due to time zone crossing. See the SLI2533 flight status page for this flight to view local times or setup timezone preferences in your user account.

Time Position Orientation Groundspeed Altitude Reporting Facility
EDT Latitude Longitude Course Direction KTS MPH feet Rate Location/Type
Fri 10:58:15 AM 21.8476 -100.6573 148° Southeast  Level Estimated
Fri 10:59:15 AM 21.7983 -100.6243 148° Southeast  Level Estimated
Fri 11:00:15 AM 21.7490 -100.5913 148° Southeast  Level Estimated
Fri 11:01:15 AM 21.6996 -100.5583 148° Southeast  Level Estimated
Fri 11:02:15 AM 21.6503 -100.5253 148° Southeast  Level Estimated
Fri 11:03:15 AM 21.6010 -100.4923 148° Southeast  Level Estimated
Fri 11:04:15 AM 21.5516 -100.4594 148° Southeast  Level Estimated
Fri 11:05:15 AM 21.5022 -100.4265 148° Southeast  Level Estimated
Fri 11:06:15 AM 21.4529 -100.3936 148° Southeast  Level Estimated
Fri 11:07:15 AM 21.4035 -100.3608 148° Southeast  Level Estimated
Fri 11:08:15 AM 21.3541 -100.3279 148° Southeast  Level Estimated
Fri 11:09:15 AM 21.3047 -100.2951 148° Southeast  Level Estimated
Fri 11:10:15 AM 21.2553 -100.2623 148° Southeast  Level Estimated
Fri 11:11:15 AM 21.2059 -100.2296 148° Southeast  Level Estimated
Fri 11:12:15 AM 21.1565 -100.1968 148° Southeast  Level Estimated
Fri 11:13:15 AM 21.1071 -100.1641 148° Southeast  Level Estimated
Fri 11:14:15 AM 21.0577 -100.1314 148° Southeast  Level Estimated
Fri 11:15:15 AM 21.0082 -100.0987 148° Southeast  Level Estimated
Fri 11:16:15 AM 20.9588 -100.0660 148° Southeast  Level Estimated
Fri 11:17:15 AM 20.9094 -100.0334 148° Southeast  Level Estimated
Fri 11:18:15 AM 20.8599 -100.0007 148° Southeast  Level Estimated
Fri 11:19:15 AM 20.8105 -99.9681 148° Southeast  Level Estimated
Fri 11:20:15 AM 20.7610 -99.9356 148° Southeast  Level Estimated
Fri 11:21:15 AM 20.7116 -99.9030 148° Southeast  Level Estimated
Fri 11:22:15 AM 20.6621 -99.8705 148° Southeast  Level Estimated
Fri 11:23:15 AM 20.6126 -99.8380 148° Southeast  Level Estimated
Fri 11:24:15 AM 20.5631 -99.8055 148° Southeast  Level Estimated
Fri 11:25:15 AM 20.5136 -99.7730 148° Southeast  Level Estimated
Fri 11:26:15 AM 20.4641 -99.7405 148° Southeast  Level Estimated
Fri 11:27:15 AM 20.4146 -99.7081 148° Southeast  Level Estimated
Fri 11:28:15 AM 20.3651 -99.6757 148° Southeast  Level Estimated
Fri 11:29:15 AM 20.3156 -99.6433 148° Southeast  Level Estimated
Fri 11:30:15 AM 20.2661 -99.6109 148° Southeast  Level Estimated
Fri 11:31:15 AM 20.2166 -99.5786 148° Southeast  Level Estimated
Fri 11:32:15 AM 20.1671 -99.5463 149° Southeast  Level Estimated
Fri 11:33:15 AM 20.1175 -99.5139 149° Southeast  Level Estimated
Fri 11:34:15 AM 20.0680 -99.4817 149° Southeast  Level Estimated
Fri 11:35:15 AM 20.0184 -99.4494 149° Southeast  Level Estimated
Fri 11:36:15 AM 19.9689 -99.4171 149° Southeast  Level Estimated
Fri 11:37:15 AM 19.9193 -99.3849 149° Southeast  Level Estimated
Fri 11:38:15 AM 19.8697 -99.3527 149° Southeast  Level Estimated
Fri 11:39:15 AM 19.8202 -99.3205 149° Southeast  Level Estimated
Fri 11:40:15 AM 19.7706 -99.2884 149° Southeast  Level Estimated
Fri 11:41:15 AM 19.7210 -99.2562 149° Southeast  Level Estimated
Fri 11:42:15 AM 19.6714 -99.2241 149° Southeast  Level Estimated
Fri 11:43:15 AM 19.6218 -99.1920 149° Southeast  Level Estimated
Fri 11:44:15 AM 19.5722 -99.1599 149° Southeast  Level Estimated

Login

Don't have an account? Register now (free) for customized features, flight alerts, and more!